Time;durP1;ratioP1;P1;durP2;ratioP2;P2;SDS_P1;SDS_P2;PMS_P1;PMS_P2;Temp;Humidity;BMP_temperature;BMP_pressure;BME280_temperature;BME280_humidity;BME280_pressure;Samples;Min_cycle;Max_cycle;Signal;HPM_P1;HPM_P2
2022/03/19 00:00:58;;;;;;;;;;;;;;;-1.43;52.23;97147.09;5071725;28;976;-50
2022/03/19 00:03:24;;;;;;;;;;;;;;;-1.15;51.79;97152.50;5073025;28;1039;-51
2022/03/19 00:05:50;;;;;;;;;;;;;;;-1.05;52.86;97159.22;5071558;28;1861;-50
2022/03/19 00:08:16;;;;;;;;;;;;;;;-1.08;52.57;97145.28;5072842;28;2136;-50
2022/03/19 00:10:42;;;;;;;;;;;;;;;-1.02;50.98;97153.88;5072968;28;1047;-50
2022/03/19 00:13:10;;;;;;;;;;;;;;;-1.55;51.49;97147.41;5072707;28;1004;-50
2022/03/19 00:15:37;;;;;;;;;;;;;;;-1.55;53.13;97148.28;5072984;28;1032;-50
2022/03/19 00:18:03;;;;;;;;;;;;;;;-1.50;53.71;97145.53;5073131;28;996;-50
2022/03/19 00:20:30;;;;;;;;;;;;;;;-1.90;53.60;97155.22;5073159;28;1036;-50
2022/03/19 00:22:56;;;;;;;;;;;;;;;-1.98;53.82;97144.91;5072860;28;1028;-50
2022/03/19 00:25:23;;;;;;;;;;;;;;;-1.66;52.77;97139.81;5073197;28;945;-50
2022/03/19 00:27:49;;;;;;;;;;;;;;;-1.69;54.99;97145.13;5072715;28;1992;-50
2022/03/19 00:30:15;;;;;;;;;;;;;;;-2.02;54.87;97145.88;5073031;28;961;-50
2022/03/19 00:32:41;;;;;;;;;;;;;;;-1.80;54.89;97146.25;5072590;28;1087;-50
2022/03/19 00:35:08;;;;;;;;;;;;;;;-1.62;55.44;97139.69;5073038;28;1055;-50
2022/03/19 00:37:43;;;;;;;;;;;;;;;-1.44;53.76;97143.63;5073015;28;1032;-50
2022/03/19 00:40:10;;;;;;;;;;;;;;;-1.36;53.26;97148.66;5073253;28;2131;-50
2022/03/19 00:42:36;;;;;;;;;;;;;;;-1.94;54.02;97145.69;5072221;28;1073;-50
2022/03/19 00:45:03;;;;;;;;;;;;;;;-2.33;54.72;97140.50;5074411;28;961;-50
2022/03/19 00:47:29;;;;;;;;;;;;;;;-2.39;54.79;97145.84;5076545;28;1910;-50
2022/03/19 00:49:55;;;;;;;;;;;;;;;-2.01;56.22;97133.63;5076444;28;976;-50
2022/03/19 00:52:21;;;;;;;;;;;;;;;-1.89;56.47;97129.88;5075909;28;1217;-50
2022/03/19 00:54:47;;;;;;;;;;;;;;;-2.10;55.21;97139.13;5076167;28;1023;-50
2022/03/19 00:57:13;;;;;;;;;;;;;;;-2.71;55.92;97142.16;5074697;28;977;-50
2022/03/19 00:59:39;;;;;;;;;;;;;;;-2.41;55.73;97139.78;5076030;28;1083;-50
2022/03/19 01:02:05;;;;;;;;;;;;;;;-1.90;54.56;97136.00;5075959;28;972;-50
2022/03/19 01:04:31;;;;;;;;;;;;;;;-1.83;55.35;97142.84;5076032;28;1061;-50
2022/03/19 01:06:57;;;;;;;;;;;;;;;-2.48;56.62;97144.31;5076046;28;1993;-50
2022/03/19 01:09:23;;;;;;;;;;;;;;;-2.61;57.47;97138.44;5076021;28;1019;-50
2022/03/19 01:11:50;;;;;;;;;;;;;;;-2.87;56.93;97141.59;5075395;28;1036;-50
2022/03/19 01:14:16;;;;;;;;;;;;;;;-3.14;57.39;97150.84;5075691;28;1024;-50
2022/03/19 01:16:42;;;;;;;;;;;;;;;-2.88;56.96;97139.00;5075762;28;973;-50
2022/03/19 01:19:08;;;;;;;;;;;;;;;-2.58;57.04;97141.03;5075689;28;1027;-50
2022/03/19 01:21:35;;;;;;;;;;;;;;;-2.50;57.79;97135.63;5075399;28;1885;-50
2022/03/19 01:24:02;;;;;;;;;;;;;;;-3.05;58.68;97142.84;5075586;28;1048;-50
2022/03/19 01:26:28;;;;;;;;;;;;;;;-3.41;57.87;97142.63;5075224;28;1910;-50
2022/03/19 01:28:54;;;;;;;;;;;;;;;-3.33;59.70;97140.72;5075231;28;1928;-50
2022/03/19 01:31:25;;;;;;;;;;;;;;;-3.17;59.59;97143.06;5075682;28;1004;-50
2022/03/19 01:33:52;;;;;;;;;;;;;;;-3.36;59.55;97143.41;5075295;28;1041;-50
2022/03/19 01:36:18;;;;;;;;;;;;;;;-3.47;60.71;97145.34;5075426;28;1045;-50
2022/03/19 01:38:44;;;;;;;;;;;;;;;-3.24;60.76;97147.56;5074964;28;1044;-50
2022/03/19 01:41:10;;;;;;;;;;;;;;;-3.29;61.48;97132.84;5075119;28;1116;-51
2022/03/19 01:43:37;;;;;;;;;;;;;;;-3.28;60.47;97147.63;5074774;28;1012;-50
2022/03/19 01:46:03;;;;;;;;;;;;;;;-3.61;60.59;97147.34;5075229;28;1051;-50
2022/03/19 01:48:29;;;;;;;;;;;;;;;-3.86;60.60;97139.03;5074982;28;1979;-50
2022/03/19 01:50:55;;;;;;;;;;;;;;;-3.64;61.18;97135.19;5075029;28;1153;-50
2022/03/19 01:53:21;;;;;;;;;;;;;;;-3.41;60.51;97139.16;5074739;28;1004;-50
2022/03/19 01:55:47;;;;;;;;;;;;;;;-3.58;59.88;97134.22;5073977;28;977;-50
2022/03/19 01:58:14;;;;;;;;;;;;;;;-3.89;60.64;97139.09;5074461;28;988;-50
2022/03/19 02:00:40;;;;;;;;;;;;;;;-3.79;61.43;97133.69;5074831;28;1118;-50
2022/03/19 02:03:07;;;;;;;;;;;;;;;-3.61;60.92;97132.50;5073686;28;1031;-50
2022/03/19 02:05:33;;;;;;;;;;;;;;;-3.83;61.35;97134.63;5074870;28;1086;-50
2022/03/19 02:07:59;;;;;;;;;;;;;;;-3.80;61.56;97131.94;5074433;28;1913;-50
2022/03/19 02:10:26;;;;;;;;;;;;;;;-3.77;61.21;97131.06;5074637;28;1015;-50
2022/03/19 02:12:53;;;;;;;;;;;;;;;-4.01;61.36;97129.69;5074079;28;952;-50
2022/03/19 02:15:19;;;;;;;;;;;;;;;-4.08;61.79;97130.66;5074747;28;948;-50
2022/03/19 02:17:45;;;;;;;;;;;;;;;-3.81;60.97;97132.84;5074222;28;1232;-50
2022/03/19 02:20:11;;;;;;;;;;;;;;;-3.70;61.12;97126.56;5073653;28;1036;-50
2022/03/19 02:22:37;;;;;;;;;;;;;;;-4.01;62.07;97129.69;5074210;28;1097;-50
2022/03/19 02:27:48;;;;;;;;;;;;;;;-4.00;61.88;97126.22;5074245;28;1913;-50
2022/03/19 02:30:15;;;;;;;;;;;;;;;-4.18;61.89;97130.81;5074368;28;1097;-50
2022/03/19 02:32:42;;;;;;;;;;;;;;;-4.36;62.52;97136.31;5074239;28;1099;-50
2022/03/19 02:35:08;;;;;;;;;;;;;;;-4.24;62.05;97130.91;5074323;28;1007;-50
2022/03/19 02:37:45;;;;;;;;;;;;;;;-4.13;62.53;97144.66;5074013;28;1036;-50
2022/03/19 02:40:13;;;;;;;;;;;;;;;-4.09;61.64;97137.66;5073906;28;972;-50
2022/03/19 02:42:39;;;;;;;;;;;;;;;-3.81;61.68;97134.63;5073578;28;1203;-50
2022/03/19 02:45:06;;;;;;;;;;;;;;;-3.75;62.85;97140.59;5074038;28;1004;-50
2022/03/19 02:47:32;;;;;;;;;;;;;;;-3.77;62.46;97136.28;5073862;28;1910;-50
2022/03/19 02:49:59;;;;;;;;;;;;;;;-4.01;62.07;97134.91;5073789;28;1016;-50
2022/03/19 02:52:25;;;;;;;;;;;;;;;-4.42;62.19;97142.50;5073732;28;1217;-50
2022/03/19 02:54:51;;;;;;;;;;;;;;;-4.42;62.48;97141.59;5073684;28;984;-50
2022/03/19 02:57:17;;;;;;;;;;;;;;;-3.97;62.56;97133.97;5073996;28;1016;-50
2022/03/19 02:59:43;;;;;;;;;;;;;;;-4.09;61.73;97131.56;5073712;28;981;-50
2022/03/19 03:02:09;;;;;;;;;;;;;;;-4.33;62.63;97142.34;5073804;28;1011;-50
2022/03/19 03:04:35;;;;;;;;;;;;;;;-4.14;62.25;97132.47;5073483;28;1134;-50
2022/03/19 03:07:02;;;;;;;;;;;;;;;-4.05;63.41;97136.72;5073184;28;1910;-50
2022/03/19 03:09:29;;;;;;;;;;;;;;;-3.93;62.39;97130.44;5073395;28;1054;-50
2022/03/19 03:11:55;;;;;;;;;;;;;;;-4.03;62.02;97121.88;5073501;28;1199;-50
2022/03/19 03:14:22;;;;;;;;;;;;;;;-4.33;62.17;97134.50;5073584;28;1012;-50
2022/03/19 03:16:49;;;;;;;;;;;;;;;-4.29;63.39;97132.72;5073506;28;1027;-50
2022/03/19 03:19:15;;;;;;;;;;;;;;;-4.18;62.15;97133.41;5073443;28;1105;-50
2022/03/19 03:21:42;;;;;;;;;;;;;;;-4.45;62.48;97133.84;5073475;28;945;-50
2022/03/19 03:24:08;;;;;;;;;;;;;;;-4.69;62.46;97127.19;5073009;28;976;-50
2022/03/19 03:26:35;;;;;;;;;;;;;;;-4.61;62.96;97121.00;5073286;28;1902;-50
2022/03/19 03:29:01;;;;;;;;;;;;;;;-4.41;63.01;97122.47;5073246;28;980;-50
2022/03/19 03:31:27;;;;;;;;;;;;;;;-4.32;62.38;97127.56;5073472;28;1055;-50
2022/03/19 03:33:54;;;;;;;;;;;;;;;-4.54;62.77;97129.59;5073074;28;1071;-50
2022/03/19 03:36:20;;;;;;;;;;;;;;;-4.54;63.21;97126.97;5073265;28;974;-50
2022/03/19 03:38:47;;;;;;;;;;;;;;;-4.74;63.98;97133.34;5072827;28;1091;-50
2022/03/19 03:41:13;;;;;;;;;;;;;;;-4.76;63.25;97134.22;5073306;28;1223;-50
2022/03/19 03:43:39;;;;;;;;;;;;;;;-4.35;62.60;97125.81;5072857;28;1036;-50
2022/03/19 03:46:05;;;;;;;;;;;;;;;-4.16;63.19;97122.94;5073040;28;1028;-50
2022/03/19 03:48:34;;;;;;;;;;;;;;;-4.90;62.69;97132.66;5072972;28;1985;-50
2022/03/19 03:51:00;;;;;;;;;;;;;;;-4.94;62.83;97123.13;5072896;28;1150;-50
2022/03/19 03:53:27;;;;;;;;;;;;;;;-4.65;63.03;97124.50;5073014;28;1032;-50
2022/03/19 03:55:53;;;;;;;;;;;;;;;-4.79;64.47;97122.09;5072678;28;1290;-50
2022/03/19 03:58:19;;;;;;;;;;;;;;;-4.69;65.61;97116.75;5073300;28;988;-50
2022/03/19 04:00:45;;;;;;;;;;;;;;;-4.61;64.91;97127.94;5071702;28;1016;-50
2022/03/19 04:03:11;;;;;;;;;;;;;;;-5.03;64.23;97128.47;5072957;28;1079;-50
2022/03/19 04:05:38;;;;;;;;;;;;;;;-4.93;64.51;97124.03;5072826;28;937;-50
2022/03/19 04:08:04;;;;;;;;;;;;;;;-4.65;63.27;97121.03;5072707;28;1909;-50
2022/03/19 04:10:31;;;;;;;;;;;;;;;-4.69;63.70;97127.19;5072873;28;952;-50
2022/03/19 04:12:57;;;;;;;;;;;;;;;-4.57;64.54;97121.78;5072779;28;968;-50
2022/03/19 04:15:24;;;;;;;;;;;;;;;-4.64;63.27;97125.41;5072750;28;1029;-50
2022/03/19 04:17:50;;;;;;;;;;;;;;;-5.07;64.39;97125.91;5072878;28;960;-50
2022/03/19 04:20:16;;;;;;;;;;;;;;;-4.82;64.71;97123.88;5074619;28;1067;-50
2022/03/19 04:22:44;;;;;;;;;;;;;;;-4.57;63.79;97124.41;5076936;28;1051;-50
2022/03/19 04:25:11;;;;;;;;;;;;;;;-5.02;62.88;97135.41;5076589;28;969;-50
2022/03/19 04:27:38;;;;;;;;;;;;;;;-5.17;64.06;97136.47;5076512;28;1917;-50
2022/03/19 04:30:05;;;;;;;;;;;;;;;-5.00;63.88;97138.88;5076386;28;1071;-50
2022/03/19 04:32:31;;;;;;;;;;;;;;;-4.92;64.58;97129.19;5076558;28;988;-50
2022/03/19 04:34:57;;;;;;;;;;;;;;;-4.80;65.25;97140.38;5076025;28;1048;-50
2022/03/19 04:37:23;;;;;;;;;;;;;;;-4.96;64.46;97142.31;5076429;28;1084;-50
2022/03/19 04:39:49;;;;;;;;;;;;;;;-4.86;64.69;97137.84;5076197;28;1050;-50
2022/03/19 04:42:16;;;;;;;;;;;;;;;-4.80;64.35;97140.38;5075901;28;1089;-50
2022/03/19 04:44:42;;;;;;;;;;;;;;;-5.22;64.18;97140.00;5076268;28;1016;-50
2022/03/19 04:47:08;;;;;;;;;;;;;;;-5.62;65.46;97123.00;5076079;28;1989;-50
2022/03/19 04:49:34;;;;;;;;;;;;;;;-5.27;64.50;97137.44;5075953;28;1836;-50
2022/03/19 04:52:00;;;;;;;;;;;;;;;-5.06;64.84;97132.88;5075938;28;1201;-50
2022/03/19 04:54:26;;;;;;;;;;;;;;;-4.94;65.93;97141.41;5076223;28;1051;-50
2022/03/19 04:56:52;;;;;;;;;;;;;;;-4.79;65.04;97142.13;5076229;28;1012;-50
2022/03/19 04:59:18;;;;;;;;;;;;;;;-5.27;64.53;97147.00;5076076;28;1026;-50
2022/03/19 05:01:44;;;;;;;;;;;;;;;-5.08;64.32;97151.16;5075815;28;1027;-50
2022/03/19 05:04:10;;;;;;;;;;;;;;;-4.75;64.16;97149.88;5075956;28;964;-50
2022/03/19 05:06:36;;;;;;;;;;;;;;;-4.45;63.85;97147.75;5075543;28;1914;-50
2022/03/19 05:12:05;;;;;;;;;;;;;;;-4.52;63.41;97152.19;5052996;28;1083;-50
2022/03/19 05:14:31;;;;;;;;;;;;;;;-4.26;62.89;97143.13;5071461;28;1078;-50
2022/03/19 05:16:56;;;;;;;;;;;;;;;-3.96;63.01;97144.41;5075396;28;1040;-49
2022/03/19 05:19:23;;;;;;;;;;;;;;;-4.04;61.94;97145.41;5075889;28;1051;-50
2022/03/19 05:21:49;;;;;;;;;;;;;;;-4.14;62.26;97149.91;5075703;28;964;-50
2022/03/19 05:24:15;;;;;;;;;;;;;;;-3.76;62.17;97154.53;5075632;28;1036;-50
2022/03/19 05:26:41;;;;;;;;;;;;;;;-3.38;61.58;97154.78;5075175;28;1993;-49
2022/03/19 05:29:07;;;;;;;;;;;;;;;-3.13;61.34;97152.56;5075372;28;1087;-50
2022/03/19 05:31:33;;;;;;;;;;;;;;;-3.05;61.38;97153.31;5074995;28;1020;-50
2022/03/19 05:36:43;;;;;;;;;;;;;;;-2.92;59.92;97151.31;5075144;28;1024;-50
2022/03/19 05:39:09;;;;;;;;;;;;;;;-2.66;60.91;97157.78;5075315;28;1027;-50
2022/03/19 05:41:35;;;;;;;;;;;;;;;-2.00;58.84;97156.34;5074844;28;1235;-51
2022/03/19 05:44:01;;;;;;;;;;;;;;;-1.57;56.71;97150.94;5074905;28;945;-50
2022/03/19 05:46:27;;;;;;;;;;;;;;;-1.39;58.45;97146.97;5075087;28;1997;-50
2022/03/19 05:48:53;;;;;;;;;;;;;;;-1.22;56.53;97151.78;5075415;28;1023;-51
2022/03/19 05:51:19;;;;;;;;;;;;;;;-1.15;56.14;97151.63;5074938;28;1162;-50
2022/03/19 05:53:45;;;;;;;;;;;;;;;-0.88;55.20;97156.13;5074931;28;1052;-50
2022/03/19 05:56:11;;;;;;;;;;;;;;;-0.53;55.15;97154.28;5074787;28;2005;-50
2022/03/19 05:58:37;;;;;;;;;;;;;;;-0.18;53.18;97154.16;5074846;28;1048;-50
2022/03/19 06:01:03;;;;;;;;;;;;;;;0.19;52.25;97145.97;5074802;28;1100;-50
2022/03/19 06:03:29;;;;;;;;;;;;;;;0.35;51.66;97146.34;5074780;28;1025;-50
2022/03/19 06:05:55;;;;;;;;;;;;;;;0.48;51.12;97147.66;5074627;28;1103;-51
2022/03/19 06:08:22;;;;;;;;;;;;;;;0.74;50.56;97148.53;5074512;28;1910;-50
2022/03/19 06:10:47;;;;;;;;;;;;;;;1.26;50.31;97154.63;5074411;28;1055;-50
2022/03/19 06:13:13;;;;;;;;;;;;;;;1.59;49.10;97149.03;5074363;28;1031;-50
2022/03/19 06:15:39;;;;;;;;;;;;;;;2.42;47.98;97144.97;5074777;28;973;-50
2022/03/19 06:18:05;;;;;;;;;;;;;;;4.06;44.13;97148.34;5074250;28;1095;-50
2022/03/19 06:20:31;;;;;;;;;;;;;;;5.81;40.11;97151.06;5074621;28;1007;-50
2022/03/19 06:22:58;;;;;;;;;;;;;;;7.64;36.52;97143.22;5073971;28;1028;-49
2022/03/19 06:25:24;;;;;;;;;;;;;;;9.33;34.34;97151.00;5073233;28;999;-49
2022/03/19 06:27:50;;;;;;;;;;;;;;;11.69;30.26;97141.94;5073919;28;1992;-50
2022/03/19 06:30:16;;;;;;;;;;;;;;;13.38;27.91;97149.78;5074211;28;973;-50
2022/03/19 06:32:42;;;;;;;;;;;;;;;14.56;25.83;97148.56;5074030;28;1021;-50
2022/03/19 06:35:10;;;;;;;;;;;;;;;15.37;25.15;97154.66;5074186;28;973;-50
2022/03/19 06:37:36;;;;;;;;;;;;;;;15.31;24.71;97155.22;5073966;28;913;-50
2022/03/19 06:40:06;;;;;;;;;;;;;;;16.17;23.67;97155.25;5073975;28;928;-50
2022/03/19 06:42:33;;;;;;;;;;;;;;;15.92;24.32;97153.22;5072863;28;1109;-50
2022/03/19 06:44:59;;;;;;;;;;;;;;;14.19;25.97;97141.03;5074165;28;980;-50
2022/03/19 06:47:25;;;;;;;;;;;;;;;13.23;26.81;97153.72;5073636;28;2006;-49
2022/03/19 06:49:51;;;;;;;;;;;;;;;12.82;27.97;97152.63;5073966;28;1070;-49
2022/03/19 06:52:17;;;;;;;;;;;;;;;11.97;28.74;97154.06;5073587;28;1162;-49
2022/03/19 06:54:44;;;;;;;;;;;;;;;11.60;29.22;97146.19;5072666;28;953;-49
2022/03/19 06:57:10;;;;;;;;;;;;;;;12.72;28.00;97146.31;5073417;28;1075;-49
2022/03/19 06:59:36;;;;;;;;;;;;;;;13.06;27.22;97141.69;5073975;28;980;-49
2022/03/19 07:02:02;;;;;;;;;;;;;;;14.60;25.38;97150.00;5073650;28;1046;-49
2022/03/19 07:04:28;;;;;;;;;;;;;;;15.90;24.20;97149.81;5073814;28;1055;-49
2022/03/19 07:06:54;;;;;;;;;;;;;;;15.74;23.46;97151.22;5073180;28;1993;-49
2022/03/19 07:09:20;;;;;;;;;;;;;;;16.39;23.25;97139.69;5074115;28;1008;-50
2022/03/19 07:11:46;;;;;;;;;;;;;;;16.96;23.00;97135.00;5073055;28;961;-49
2022/03/19 07:14:12;;;;;;;;;;;;;;;17.70;21.88;97141.09;5073757;28;995;-50
2022/03/19 07:16:39;;;;;;;;;;;;;;;19.39;19.36;97144.09;5073601;28;961;-50
2022/03/19 07:19:05;;;;;;;;;;;;;;;20.28;18.36;97139.66;5073439;28;1036;-50
2022/03/19 07:21:31;;;;;;;;;;;;;;;21.51;18.12;97140.97;5073478;28;1004;-50
2022/03/19 07:23:57;;;;;;;;;;;;;;;22.16;16.43;97134.13;5073135;28;1033;-50
2022/03/19 07:26:23;;;;;;;;;;;;;;;22.79;16.84;97134.63;5073262;28;1987;-50
2022/03/19 07:28:49;;;;;;;;;;;;;;;22.64;16.18;97132.94;5073135;28;1040;-50
2022/03/19 07:31:15;;;;;;;;;;;;;;;23.29;15.67;97133.97;5073495;28;972;-50
2022/03/19 07:33:41;;;;;;;;;;;;;;;23.47;15.49;97139.84;5073448;28;969;-51
2022/03/19 07:36:07;;;;;;;;;;;;;;;24.08;14.83;97139.38;5073322;28;1055;-50
2022/03/19 07:38:33;;;;;;;;;;;;;;;23.74;14.43;97143.69;5073006;28;1107;-50
2022/03/19 07:43:44;;;;;;;;;;;;;;;22.96;14.74;97135.25;5072990;28;1024;-50
2022/03/19 07:46:10;;;;;;;;;;;;;;;23.74;14.18;97135.47;5073329;28;1600;-50
2022/03/19 07:48:37;;;;;;;;;;;;;;;24.34;12.90;97140.63;5072940;28;1905;-51
2022/03/19 07:51:03;;;;;;;;;;;;;;;25.11;12.10;97134.09;5071813;28;1166;-51
2022/03/19 07:53:29;;;;;;;;;;;;;;;25.39;12.91;97140.56;5072936;28;1079;-50
2022/03/19 07:55:55;;;;;;;;;;;;;;;25.58;12.25;97136.19;5076174;28;1048;-51
2022/03/19 07:58:22;;;;;;;;;;;;;;;25.49;11.68;97130.03;5077232;28;960;-50
2022/03/19 08:00:48;;;;;;;;;;;;;;;26.10;11.78;97131.81;5077211;28;1059;-50
2022/03/19 08:03:14;;;;;;;;;;;;;;;25.94;11.74;97141.31;5076855;28;1076;-50
2022/03/19 08:05:40;;;;;;;;;;;;;;;25.87;12.81;97149.47;5077124;28;1063;-52
2022/03/19 08:08:07;;;;;;;;;;;;;;;26.40;11.50;97126.72;5076643;28;1913;-52
2022/03/19 08:10:35;;;;;;;;;;;;;;;26.09;11.70;97133.72;5076942;28;1058;-52
2022/03/19 08:13:05;;;;;;;;;;;;;;;25.83;12.75;97134.50;5076664;28;1031;-52
2022/03/19 08:15:31;;;;;;;;;;;;;;;26.06;12.24;97138.78;5076956;28;1007;-52
2022/03/19 08:17:58;;;;;;;;;;;;;;;26.93;11.26;97136.75;5076686;28;1043;-54
2022/03/19 08:20:25;;;;;;;;;;;;;;;25.69;12.17;97127.34;5076820;28;1011;-52
2022/03/19 08:22:51;;;;;;;;;;;;;;;25.33;11.46;97136.75;5076278;28;1020;-52
2022/03/19 08:25:17;;;;;;;;;;;;;;;23.64;12.30;97126.78;5076816;28;972;-58
2022/03/19 08:27:43;;;;;;;;;;;;;;;21.52;13.46;97120.91;5076519;28;1990;-51
2022/03/19 08:30:09;;;;;;;;;;;;;;;18.42;16.90;97119.22;5076543;28;984;-48
2022/03/19 08:32:35;;;;;;;;;;;;;;;16.48;18.20;97110.94;5076499;28;1935;-50
2022/03/19 08:35:02;;;;;;;;;;;;;;;16.47;17.90;97102.00;5076222;28;968;-50
2022/03/19 08:37:28;;;;;;;;;;;;;;;14.57;18.71;97097.31;5076339;28;1024;-49
2022/03/19 08:42:39;;;;;;;;;;;;;;;13.85;18.97;97093.75;5076082;28;1113;-49
2022/03/19 08:45:05;;;;;;;;;;;;;;;13.93;19.55;97095.78;5076141;28;1170;-48
2022/03/19 08:47:31;;;;;;;;;;;;;;;12.02;22.40;97095.56;5076178;28;1995;-56
2022/03/19 08:49:58;;;;;;;;;;;;;;;13.70;22.78;97095.09;5075851;28;1083;-49
2022/03/19 08:52:24;;;;;;;;;;;;;;;14.31;20.75;97090.69;5076010;28;1162;-49
2022/03/19 08:54:50;;;;;;;;;;;;;;;14.10;20.38;97080.84;5076063;28;924;-49
2022/03/19 08:57:16;;;;;;;;;;;;;;;14.29;20.74;97082.75;5076214;28;1020;-49
2022/03/19 08:59:42;;;;;;;;;;;;;;;13.91;20.21;97078.09;5075849;28;1083;-49
2022/03/19 09:02:08;;;;;;;;;;;;;;;13.76;20.00;97070.38;5075985;28;992;-49
2022/03/19 09:04:35;;;;;;;;;;;;;;;13.78;24.19;97075.59;5075758;28;992;-49
2022/03/19 09:07:01;;;;;;;;;;;;;;;13.95;22.03;97074.13;5075040;28;1914;-49
2022/03/19 09:09:27;;;;;;;;;;;;;;;13.93;19.67;97073.41;5075855;28;1043;-49
2022/03/19 09:11:53;;;;;;;;;;;;;;;12.61;22.97;97072.03;5075818;28;1031;-49
2022/03/19 09:14:20;;;;;;;;;;;;;;;12.43;22.66;97075.28;5075622;28;1040;-49
2022/03/19 09:16:46;;;;;;;;;;;;;;;11.42;23.12;97072.59;5075612;28;1048;-49
2022/03/19 09:19:12;;;;;;;;;;;;;;;11.44;24.54;97067.97;5075474;28;1048;-49
2022/03/19 09:21:38;;;;;;;;;;;;;;;11.18;23.62;97064.66;5075459;28;1115;-49
2022/03/19 09:24:04;;;;;;;;;;;;;;;9.95;24.66;97061.22;5075487;28;980;-49
2022/03/19 09:26:30;;;;;;;;;;;;;;;9.66;25.84;97057.97;5075605;28;1992;-49
2022/03/19 09:29:31;;;;;;;;;;;;;;;9.18;25.96;97072.81;5074698;28;2927;-49
2022/03/19 09:31:57;;;;;;;;;;;;;;;8.60;25.65;97068.75;5074673;28;1107;-52
2022/03/19 09:34:23;;;;;;;;;;;;;;;8.36;26.12;97060.53;5075401;28;952;-49
2022/03/19 09:40:10;;;;;;;;;;;;;;;9.90;25.75;97058.88;5075125;28;597;-49
2022/03/19 09:42:46;;;;;;;;;;;;;;;8.95;27.29;97053.06;5074877;28;1097;-49
2022/03/19 09:45:12;;;;;;;;;;;;;;;8.91;25.71;97048.00;5074998;28;925;-49
2022/03/19 09:47:38;;;;;;;;;;;;;;;8.72;26.87;97051.91;5075091;28;1997;-49
2022/03/19 09:50:04;;;;;;;;;;;;;;;8.36;26.15;97050.72;5074941;28;980;-49
2022/03/19 09:52:34;;;;;;;;;;;;;;;8.58;27.72;97044.00;5074998;28;1217;-49
2022/03/19 09:55:00;;;;;;;;;;;;;;;10.12;26.40;97051.97;5074613;28;984;-49
2022/03/19 09:57:26;;;;;;;;;;;;;;;10.22;25.35;97044.97;5075198;28;1210;-50
2022/03/19 09:59:52;;;;;;;;;;;;;;;10.80;24.76;97050.53;5074804;28;972;-49
2022/03/19 10:02:18;;;;;;;;;;;;;;;11.16;23.19;97040.66;5074869;28;1091;-50
2022/03/19 10:04:44;;;;;;;;;;;;;;;11.08;25.53;97041.25;5074576;28;968;-51
2022/03/19 10:09:56;;;;;;;;;;;;;;;11.03;23.90;97026.50;5074691;28;968;-50
2022/03/19 10:12:25;;;;;;;;;;;;;;;10.35;24.52;97024.44;5074559;28;975;-50
2022/03/19 10:14:53;;;;;;;;;;;;;;;9.66;26.03;97015.22;5074261;28;1231;-51
2022/03/19 10:17:25;;;;;;;;;;;;;;;10.12;25.78;97018.06;5073504;28;1016;-50
2022/03/19 10:19:52;;;;;;;;;;;;;;;10.60;25.33;97022.59;5074209;28;1040;-50
2022/03/19 10:22:28;;;;;;;;;;;;;;;10.14;22.56;97013.47;5074586;28;1032;-49
2022/03/19 10:24:58;;;;;;;;;;;;;;;10.65;22.37;97004.38;5074112;28;1086;-49
2022/03/19 10:27:24;;;;;;;;;;;;;;;10.89;25.02;97011.53;5074369;28;1914;-49
2022/03/19 10:30:04;;;;;;;;;;;;;;;11.17;24.89;97006.69;5073984;28;1067;-50
2022/03/19 10:32:30;;;;;;;;;;;;;;;11.21;23.64;97005.47;5072888;28;952;-49
2022/03/19 10:34:56;;;;;;;;;;;;;;;10.80;24.14;97002.38;5073935;28;1003;-50
2022/03/19 10:37:35;;;;;;;;;;;;;;;11.21;24.16;97000.13;5074313;28;1040;-49
2022/03/19 10:40:02;;;;;;;;;;;;;;;11.20;23.52;97001.13;5073923;28;1110;-50
2022/03/19 10:42:34;;;;;;;;;;;;;;;10.97;23.39;96998.41;5073778;28;1220;-49
2022/03/19 10:45:00;;;;;;;;;;;;;;;11.20;26.49;96985.91;5073767;28;961;-49
2022/03/19 10:47:26;;;;;;;;;;;;;;;11.23;25.59;96993.69;5073772;28;1997;-49
2022/03/19 10:49:59;;;;;;;;;;;;;;;10.32;24.84;96995.25;5073827;28;992;-50
2022/03/19 10:52:25;;;;;;;;;;;;;;;9.42;25.81;96986.63;5073913;28;1217;-50
2022/03/19 10:54:53;;;;;;;;;;;;;;;9.17;25.84;96991.03;5073936;28;1079;-49
2022/03/19 10:57:19;;;;;;;;;;;;;;;9.19;25.33;96985.59;5073745;28;1107;-50
2022/03/19 10:59:45;;;;;;;;;;;;;;;8.86;26.21;96978.97;5073429;28;1012;-51
2022/03/19 11:02:12;;;;;;;;;;;;;;;8.62;27.56;96978.00;5073445;28;1025;-51
2022/03/19 11:04:39;;;;;;;;;;;;;;;8.64;26.73;96971.59;5073789;28;1013;-51
2022/03/19 11:07:05;;;;;;;;;;;;;;;8.53;26.65;96976.78;5073458;28;1989;-51
2022/03/19 11:09:32;;;;;;;;;;;;;;;8.52;27.40;96972.44;5073589;28;1120;-50
2022/03/19 11:12:00;;;;;;;;;;;;;;;8.30;27.07;96973.81;5073062;28;1100;-51
2022/03/19 11:14:27;;;;;;;;;;;;;;;8.29;28.18;96965.94;5073467;28;1027;-51
2022/03/19 11:17:24;;;;;;;;;;;;;;;8.36;28.06;96965.41;5073150;28;1830;-51
2022/03/19 11:20:00;;;;;;;;;;;;;;;8.32;26.78;96958.56;5073369;28;1040;-51
2022/03/19 11:22:28;;;;;;;;;;;;;;;7.95;27.12;96945.06;5073427;28;1036;-50
2022/03/19 11:25:03;;;;;;;;;;;;;;;7.86;27.43;96950.97;5073234;28;1036;-51
2022/03/19 11:27:32;;;;;;;;;;;;;;;7.86;28.08;96935.00;5073447;28;1989;-51
2022/03/19 11:29:59;;;;;;;;;;;;;;;7.87;28.48;96950.00;5073207;28;1043;-49
2022/03/19 11:32:25;;;;;;;;;;;;;;;8.14;28.23;96949.16;5073202;28;1131;-50
2022/03/19 11:34:56;;;;;;;;;;;;;;;8.01;27.75;96949.97;5073214;28;957;-50
2022/03/19 11:37:23;;;;;;;;;;;;;;;7.82;27.12;96947.66;5073184;28;1028;-50
2022/03/19 11:40:04;;;;;;;;;;;;;;;7.65;28.52;96944.41;5073400;28;1027;-50
2022/03/19 11:42:30;;;;;;;;;;;;;;;7.55;28.77;96938.78;5072870;28;1345;-56
2022/03/19 11:45:06;;;;;;;;;;;;;;;7.79;28.21;96939.00;5073134;28;1138;-49
2022/03/19 11:47:38;;;;;;;;;;;;;;;7.86;27.66;96934.16;5072844;28;1910;-49
2022/03/19 11:50:17;;;;;;;;;;;;;;;7.75;28.10;96938.34;5073057;28;1008;-49
2022/03/19 11:52:44;;;;;;;;;;;;;;;7.63;28.27;96934.69;5072950;28;1149;-48
2022/03/19 11:55:12;;;;;;;;;;;;;;;7.84;28.68;96933.41;5073333;28;1043;-48
2022/03/19 11:57:47;;;;;;;;;;;;;;;8.01;28.24;96923.34;5073064;28;1039;-48
2022/03/19 12:00:14;;;;;;;;;;;;;;;7.95;28.58;96917.56;5073080;28;977;-48
2022/03/19 12:03:11;;;;;;;;;;;;;;;7.92;27.26;96923.94;5073020;28;1134;-48
2022/03/19 12:05:42;;;;;;;;;;;;;;;7.59;28.12;96927.84;5068503;28;1423;-49
2022/03/19 12:08:09;;;;;;;;;;;;;;;7.27;27.71;96918.44;5072808;28;1906;-49
2022/03/19 12:10:50;;;;;;;;;;;;;;;7.61;28.38;96911.78;5073092;28;977;-49
2022/03/19 12:13:28;;;;;;;;;;;;;;;7.84;27.29;96910.28;5072896;28;956;-49
2022/03/19 12:15:55;;;;;;;;;;;;;;;7.66;27.92;96917.66;5072921;28;1008;-49
2022/03/19 12:18:26;;;;;;;;;;;;;;;7.69;28.47;96911.28;5072836;28;999;-48
2022/03/19 12:20:53;;;;;;;;;;;;;;;7.64;28.51;96903.59;5072720;28;996;-49
2022/03/19 12:23:19;;;;;;;;;;;;;;;7.49;27.75;96899.25;5072583;28;1019;-49
2022/03/19 12:25:50;;;;;;;;;;;;;;;7.59;27.95;96900.38;5072771;28;1032;-50
2022/03/19 12:28:16;;;;;;;;;;;;;;;7.70;28.15;96897.88;5072570;28;1991;-50
2022/03/19 12:30:43;;;;;;;;;;;;;;;7.94;27.97;96895.38;5072803;28;1074;-50
2022/03/19 12:33:09;;;;;;;;;;;;;;;7.93;28.91;96891.03;5072686;28;940;-50
2022/03/19 12:35:40;;;;;;;;;;;;;;;7.81;27.24;96884.69;5072790;28;964;-48
2022/03/19 12:38:06;;;;;;;;;;;;;;;7.84;27.56;96878.31;5072411;28;1023;-49
2022/03/19 12:43:18;;;;;;;;;;;;;;;7.74;28.06;96875.41;5075853;28;1179;-49
2022/03/19 12:45:47;;;;;;;;;;;;;;;7.72;28.55;96876.47;5076114;28;1099;-49
2022/03/19 12:48:15;;;;;;;;;;;;;;;7.89;28.45;96870.88;5075997;28;1986;-49
2022/03/19 12:50:51;;;;;;;;;;;;;;;7.84;28.34;96869.50;5074928;28;1161;-50
2022/03/19 12:53:30;;;;;;;;;;;;;;;7.52;29.62;96878.63;5076479;28;1112;-50
2022/03/19 12:56:17;;;;;;;;;;;;;;;7.65;29.26;96869.84;5076030;28;1040;-49
2022/03/19 12:58:45;;;;;;;;;;;;;;;7.48;29.11;96871.81;5076147;28;1605;-49
2022/03/19 13:01:12;;;;;;;;;;;;;;;7.28;29.14;96867.75;5058232;28;1036;-51
2022/03/19 13:03:41;;;;;;;;;;;;;;;7.16;28.87;96876.53;5076106;28;1037;-51
2022/03/19 13:06:08;;;;;;;;;;;;;;;7.31;28.94;96861.41;5074920;28;1063;-50
2022/03/19 13:08:45;;;;;;;;;;;;;;;7.51;29.28;96866.28;5074576;28;1913;-50
2022/03/19 13:11:12;;;;;;;;;;;;;;;7.20;28.95;96864.75;5074658;28;1144;-51
2022/03/19 13:13:40;;;;;;;;;;;;;;;7.08;28.90;96858.41;5075532;28;1483;-51
2022/03/19 13:16:07;;;;;;;;;;;;;;;6.73;29.37;96868.59;5074471;28;1048;-51
2022/03/19 13:18:37;;;;;;;;;;;;;;;6.58;29.42;96867.72;5075684;28;1671;-51
2022/03/19 13:21:07;;;;;;;;;;;;;;;6.60;29.44;96868.50;5075561;28;1072;-50
2022/03/19 13:23:34;;;;;;;;;;;;;;;6.85;29.16;96867.84;5075547;28;1029;-51
2022/03/19 13:26:01;;;;;;;;;;;;;;;7.02;28.96;96864.13;5075402;28;1044;-50